sensor_id;sensor_type;location;lat;lon;timestamp;P1;durP1;ratioP1;P2;durP2;ratioP2
14282;SDS011;7225;59.282;18.344;2023-04-03T00:01:27;3.77;;;1.20;;
14282;SDS011;7225;59.282;18.344;2023-04-03T00:03:54;5.20;;;1.00;;
14282;SDS011;7225;59.282;18.344;2023-04-03T00:06:22;4.73;;;1.13;;
14282;SDS011;7225;59.282;18.344;2023-04-03T00:08:50;6.10;;;1.63;;
14282;SDS011;7225;59.282;18.344;2023-04-03T00:11:17;3.70;;;1.27;;
14282;SDS011;7225;59.282;18.344;2023-04-03T00:13:45;6.17;;;1.07;;
14282;SDS011;7225;59.282;18.344;2023-04-03T00:16:12;3.03;;;1.13;;
14282;SDS011;7225;59.282;18.344;2023-04-03T00:18:39;3.23;;;0.97;;
14282;SDS011;7225;59.282;18.344;2023-04-03T00:21:07;5.50;;;1.30;;
14282;SDS011;7225;59.282;18.344;2023-04-03T00:23:36;6.03;;;1.20;;
14282;SDS011;7225;59.282;18.344;2023-04-03T00:26:02;6.33;;;1.67;;
14282;SDS011;7225;59.282;18.344;2023-04-03T00:28:30;5.17;;;1.53;;
14282;SDS011;7225;59.282;18.344;2023-04-03T00:30:57;3.47;;;1.10;;
14282;SDS011;7225;59.282;18.344;2023-04-03T00:33:24;3.20;;;1.10;;
14282;SDS011;7225;59.282;18.344;2023-04-03T00:35:51;4.47;;;0.90;;
14282;SDS011;7225;59.282;18.344;2023-04-03T00:38:18;7.67;;;1.27;;
14282;SDS011;7225;59.282;18.344;2023-04-03T00:40:46;5.13;;;1.20;;
14282;SDS011;7225;59.282;18.344;2023-04-03T00:43:19;4.67;;;1.17;;
14282;SDS011;7225;59.282;18.344;2023-04-03T00:45:53;5.27;;;1.30;;
14282;SDS011;7225;59.282;18.344;2023-04-03T00:50:51;3.77;;;1.40;;
14282;SDS011;7225;59.282;18.344;2023-04-03T00:53:21;4.53;;;0.93;;
14282;SDS011;7225;59.282;18.344;2023-04-03T00:55:52;6.67;;;1.20;;
14282;SDS011;7225;59.282;18.344;2023-04-03T00:58:20;3.60;;;1.17;;
14282;SDS011;7225;59.282;18.344;2023-04-03T01:00:57;3.77;;;1.20;;
14282;SDS011;7225;59.282;18.344;2023-04-03T01:03:29;5.70;;;1.37;;
14282;SDS011;7225;59.282;18.344;2023-04-03T01:05:57;3.83;;;1.00;;
14282;SDS011;7225;59.282;18.344;2023-04-03T01:08:24;4.50;;;0.83;;
14282;SDS011;7225;59.282;18.344;2023-04-03T01:10:52;3.90;;;1.00;;
14282;SDS011;7225;59.282;18.344;2023-04-03T01:13:21;3.97;;;1.10;;
14282;SDS011;7225;59.282;18.344;2023-04-03T01:15:51;4.00;;;0.97;;
14282;SDS011;7225;59.282;18.344;2023-04-03T01:18:18;3.73;;;1.20;;
14282;SDS011;7225;59.282;18.344;2023-04-03T01:26:30;5.97;;;1.40;;
14282;SDS011;7225;59.282;18.344;2023-04-03T01:28:59;2.33;;;1.00;;
14282;SDS011;7225;59.282;18.344;2023-04-03T01:31:28;3.57;;;0.87;;
14282;SDS011;7225;59.282;18.344;2023-04-03T01:33:59;6.47;;;1.40;;
14282;SDS011;7225;59.282;18.344;2023-04-03T01:36:28;5.30;;;1.60;;
14282;SDS011;7225;59.282;18.344;2023-04-03T01:38:57;6.30;;;1.17;;
14282;SDS011;7225;59.282;18.344;2023-04-03T01:41:25;6.43;;;1.20;;
14282;SDS011;7225;59.282;18.344;2023-04-03T01:43:53;3.17;;;1.17;;
14282;SDS011;7225;59.282;18.344;2023-04-03T01:46:21;4.23;;;1.63;;
14282;SDS011;7225;59.282;18.344;2023-04-03T01:48:48;3.63;;;1.07;;
14282;SDS011;7225;59.282;18.344;2023-04-03T01:51:15;2.90;;;1.10;;
14282;SDS011;7225;59.282;18.344;2023-04-03T01:53:42;4.57;;;1.33;;
14282;SDS011;7225;59.282;18.344;2023-04-03T01:56:09;4.70;;;1.20;;
14282;SDS011;7225;59.282;18.344;2023-04-03T01:58:36;5.97;;;1.10;;
14282;SDS011;7225;59.282;18.344;2023-04-03T02:01:04;7.47;;;1.10;;
14282;SDS011;7225;59.282;18.344;2023-04-03T02:03:31;3.23;;;1.20;;
14282;SDS011;7225;59.282;18.344;2023-04-03T02:05:59;3.73;;;1.30;;
14282;SDS011;7225;59.282;18.344;2023-04-03T02:08:26;3.20;;;1.30;;
14282;SDS011;7225;59.282;18.344;2023-04-03T02:10:53;5.97;;;1.30;;
14282;SDS011;7225;59.282;18.344;2023-04-03T02:13:20;4.87;;;1.20;;
14282;SDS011;7225;59.282;18.344;2023-04-03T02:15:47;3.87;;;1.10;;
14282;SDS011;7225;59.282;18.344;2023-04-03T02:18:14;5.07;;;1.17;;
14282;SDS011;7225;59.282;18.344;2023-04-03T02:20:41;6.10;;;1.43;;
14282;SDS011;7225;59.282;18.344;2023-04-03T02:23:08;4.53;;;1.57;;
14282;SDS011;7225;59.282;18.344;2023-04-03T02:25:36;3.33;;;1.00;;
14282;SDS011;7225;59.282;18.344;2023-04-03T02:28:04;4.53;;;1.50;;
14282;SDS011;7225;59.282;18.344;2023-04-03T02:30:32;2.90;;;0.87;;
14282;SDS011;7225;59.282;18.344;2023-04-03T02:32:59;7.07;;;1.40;;
14282;SDS011;7225;59.282;18.344;2023-04-03T02:35:26;3.63;;;1.13;;
14282;SDS011;7225;59.282;18.344;2023-04-03T02:37:53;3.87;;;1.40;;
14282;SDS011;7225;59.282;18.344;2023-04-03T02:40:21;3.30;;;0.90;;
14282;SDS011;7225;59.282;18.344;2023-04-03T02:42:47;9.10;;;1.27;;
14282;SDS011;7225;59.282;18.344;2023-04-03T02:45:14;1.50;;;0.80;;
14282;SDS011;7225;59.282;18.344;2023-04-03T02:47:41;4.93;;;1.47;;
14282;SDS011;7225;59.282;18.344;2023-04-03T02:50:08;6.53;;;1.50;;
14282;SDS011;7225;59.282;18.344;2023-04-03T02:52:36;3.10;;;0.90;;
14282;SDS011;7225;59.282;18.344;2023-04-03T02:55:04;5.87;;;1.50;;
14282;SDS011;7225;59.282;18.344;2023-04-03T02:57:31;7.43;;;1.27;;
14282;SDS011;7225;59.282;18.344;2023-04-03T02:59:58;5.23;;;1.20;;
14282;SDS011;7225;59.282;18.344;2023-04-03T03:02:26;2.60;;;1.10;;
14282;SDS011;7225;59.282;18.344;2023-04-03T03:04:53;4.77;;;1.13;;
14282;SDS011;7225;59.282;18.344;2023-04-03T03:07:20;4.13;;;1.40;;
14282;SDS011;7225;59.282;18.344;2023-04-03T03:09:47;6.40;;;1.00;;
14282;SDS011;7225;59.282;18.344;2023-04-03T03:12:14;2.63;;;1.20;;
14282;SDS011;7225;59.282;18.344;2023-04-03T03:14:41;6.40;;;1.40;;
14282;SDS011;7225;59.282;18.344;2023-04-03T03:17:09;5.67;;;1.00;;
14282;SDS011;7225;59.282;18.344;2023-04-03T03:19:36;1.83;;;0.70;;
14282;SDS011;7225;59.282;18.344;2023-04-03T03:22:03;1.63;;;1.00;;
14282;SDS011;7225;59.282;18.344;2023-04-03T03:24:30;3.63;;;1.03;;
14282;SDS011;7225;59.282;18.344;2023-04-03T03:26:57;4.83;;;1.13;;
14282;SDS011;7225;59.282;18.344;2023-04-03T03:29:24;8.77;;;1.37;;
14282;SDS011;7225;59.282;18.344;2023-04-03T03:31:51;4.53;;;1.63;;
14282;SDS011;7225;59.282;18.344;2023-04-03T03:34:18;5.80;;;1.37;;
14282;SDS011;7225;59.282;18.344;2023-04-03T03:36:45;1.80;;;0.70;;
14282;SDS011;7225;59.282;18.344;2023-04-03T03:39:12;5.30;;;1.67;;
14282;SDS011;7225;59.282;18.344;2023-04-03T03:41:39;4.50;;;1.30;;
14282;SDS011;7225;59.282;18.344;2023-04-03T03:44:07;3.60;;;1.50;;
14282;SDS011;7225;59.282;18.344;2023-04-03T03:46:34;5.37;;;1.50;;
14282;SDS011;7225;59.282;18.344;2023-04-03T03:49:01;4.67;;;1.40;;
14282;SDS011;7225;59.282;18.344;2023-04-03T03:51:28;3.10;;;1.20;;
14282;SDS011;7225;59.282;18.344;2023-04-03T03:53:55;5.90;;;1.07;;
14282;SDS011;7225;59.282;18.344;2023-04-03T03:56:22;3.60;;;0.90;;
14282;SDS011;7225;59.282;18.344;2023-04-03T03:58:49;4.20;;;1.00;;
14282;SDS011;7225;59.282;18.344;2023-04-03T04:01:16;6.50;;;1.00;;
14282;SDS011;7225;59.282;18.344;2023-04-03T04:03:44;5.53;;;1.60;;
14282;SDS011;7225;59.282;18.344;2023-04-03T04:06:11;4.77;;;1.27;;
14282;SDS011;7225;59.282;18.344;2023-04-03T04:08:38;5.17;;;1.07;;
14282;SDS011;7225;59.282;18.344;2023-04-03T04:11:06;3.30;;;1.03;;
14282;SDS011;7225;59.282;18.344;2023-04-03T04:13:34;4.47;;;1.17;;
14282;SDS011;7225;59.282;18.344;2023-04-03T04:16:01;5.23;;;1.40;;
14282;SDS011;7225;59.282;18.344;2023-04-03T04:18:28;3.30;;;0.70;;
14282;SDS011;7225;59.282;18.344;2023-04-03T04:20:56;2.97;;;0.97;;
14282;SDS011;7225;59.282;18.344;2023-04-03T04:23:23;7.33;;;1.90;;
14282;SDS011;7225;59.282;18.344;2023-04-03T04:25:50;4.93;;;1.33;;
14282;SDS011;7225;59.282;18.344;2023-04-03T04:28:17;3.33;;;1.10;;
14282;SDS011;7225;59.282;18.344;2023-04-03T04:30:44;4.07;;;1.27;;
14282;SDS011;7225;59.282;18.344;2023-04-03T04:33:11;4.10;;;1.10;;
14282;SDS011;7225;59.282;18.344;2023-04-03T04:35:41;2.00;;;0.93;;
14282;SDS011;7225;59.282;18.344;2023-04-03T04:38:09;5.03;;;1.00;;
14282;SDS011;7225;59.282;18.344;2023-04-03T04:40:36;7.47;;;1.30;;
14282;SDS011;7225;59.282;18.344;2023-04-03T04:43:04;4.43;;;1.40;;
14282;SDS011;7225;59.282;18.344;2023-04-03T04:45:31;6.77;;;1.60;;
14282;SDS011;7225;59.282;18.344;2023-04-03T04:47:58;5.77;;;1.10;;
14282;SDS011;7225;59.282;18.344;2023-04-03T04:50:25;6.93;;;1.00;;
14282;SDS011;7225;59.282;18.344;2023-04-03T04:52:52;2.90;;;0.90;;
14282;SDS011;7225;59.282;18.344;2023-04-03T04:55:19;5.37;;;1.00;;
14282;SDS011;7225;59.282;18.344;2023-04-03T04:57:46;5.47;;;0.97;;
14282;SDS011;7225;59.282;18.344;2023-04-03T05:00:14;2.30;;;1.00;;
14282;SDS011;7225;59.282;18.344;2023-04-03T05:02:41;5.70;;;1.20;;
14282;SDS011;7225;59.282;18.344;2023-04-03T05:05:08;5.50;;;1.67;;
14282;SDS011;7225;59.282;18.344;2023-04-03T05:07:35;3.33;;;1.10;;
14282;SDS011;7225;59.282;18.344;2023-04-03T05:10:03;3.27;;;1.10;;
14282;SDS011;7225;59.282;18.344;2023-04-03T05:12:30;4.07;;;1.40;;
14282;SDS011;7225;59.282;18.344;2023-04-03T05:14:58;6.67;;;1.63;;
14282;SDS011;7225;59.282;18.344;2023-04-03T05:17:25;3.10;;;1.10;;
14282;SDS011;7225;59.282;18.344;2023-04-03T05:19:52;4.17;;;1.03;;
14282;SDS011;7225;59.282;18.344;2023-04-03T05:22:19;9.20;;;1.50;;
14282;SDS011;7225;59.282;18.344;2023-04-03T05:24:46;5.17;;;1.03;;
14282;SDS011;7225;59.282;18.344;2023-04-03T05:27:13;4.90;;;1.23;;
14282;SDS011;7225;59.282;18.344;2023-04-03T05:29:41;5.80;;;1.20;;
14282;SDS011;7225;59.282;18.344;2023-04-03T05:32:10;1.73;;;1.10;;
14282;SDS011;7225;59.282;18.344;2023-04-03T05:34:38;3.97;;;1.10;;
14282;SDS011;7225;59.282;18.344;2023-04-03T05:37:05;4.40;;;1.90;;
14282;SDS011;7225;59.282;18.344;2023-04-03T05:39:32;7.53;;;1.10;;
14282;SDS011;7225;59.282;18.344;2023-04-03T05:41:59;4.97;;;1.23;;
14282;SDS011;7225;59.282;18.344;2023-04-03T05:44:26;5.30;;;1.23;;
14282;SDS011;7225;59.282;18.344;2023-04-03T05:46:53;3.37;;;1.40;;
14282;SDS011;7225;59.282;18.344;2023-04-03T05:49:20;3.47;;;1.17;;
14282;SDS011;7225;59.282;18.344;2023-04-03T05:51:47;4.93;;;0.83;;
14282;SDS011;7225;59.282;18.344;2023-04-03T05:54:25;4.63;;;1.27;;
14282;SDS011;7225;59.282;18.344;2023-04-03T05:56:54;4.73;;;1.17;;
14282;SDS011;7225;59.282;18.344;2023-04-03T05:59:21;5.10;;;1.57;;
14282;SDS011;7225;59.282;18.344;2023-04-03T06:01:48;4.57;;;0.93;;
14282;SDS011;7225;59.282;18.344;2023-04-03T06:04:15;6.87;;;1.30;;
14282;SDS011;7225;59.282;18.344;2023-04-03T06:06:47;3.23;;;1.17;;
14282;SDS011;7225;59.282;18.344;2023-04-03T06:09:23;5.77;;;1.40;;
14282;SDS011;7225;59.282;18.344;2023-04-03T06:11:52;2.83;;;1.23;;
14282;SDS011;7225;59.282;18.344;2023-04-03T06:14:19;3.73;;;1.57;;
14282;SDS011;7225;59.282;18.344;2023-04-03T06:16:46;5.60;;;1.57;;
14282;SDS011;7225;59.282;18.344;2023-04-03T06:19:13;4.97;;;1.13;;
14282;SDS011;7225;59.282;18.344;2023-04-03T06:21:40;4.43;;;1.13;;
14282;SDS011;7225;59.282;18.344;2023-04-03T06:24:08;3.33;;;1.03;;
14282;SDS011;7225;59.282;18.344;2023-04-03T06:26:38;4.70;;;1.10;;
14282;SDS011;7225;59.282;18.344;2023-04-03T06:29:05;6.60;;;1.60;;
14282;SDS011;7225;59.282;18.344;2023-04-03T06:31:34;4.27;;;1.67;;
14282;SDS011;7225;59.282;18.344;2023-04-03T06:34:03;5.30;;;1.03;;
14282;SDS011;7225;59.282;18.344;2023-04-03T06:36:31;4.90;;;1.23;;
14282;SDS011;7225;59.282;18.344;2023-04-03T06:38:58;2.27;;;0.80;;
14282;SDS011;7225;59.282;18.344;2023-04-03T06:41:25;3.13;;;1.10;;
14282;SDS011;7225;59.282;18.344;2023-04-03T06:43:52;3.77;;;1.07;;
14282;SDS011;7225;59.282;18.344;2023-04-03T06:46:21;2.70;;;1.27;;
14282;SDS011;7225;59.282;18.344;2023-04-03T06:48:49;6.03;;;1.40;;
14282;SDS011;7225;59.282;18.344;2023-04-03T06:51:20;4.00;;;1.30;;
14282;SDS011;7225;59.282;18.344;2023-04-03T06:53:49;5.13;;;1.20;;
14282;SDS011;7225;59.282;18.344;2023-04-03T06:56:17;3.97;;;0.93;;
14282;SDS011;7225;59.282;18.344;2023-04-03T06:58:45;4.63;;;1.47;;
14282;SDS011;7225;59.282;18.344;2023-04-03T07:01:13;7.87;;;1.30;;
14282;SDS011;7225;59.282;18.344;2023-04-03T07:03:41;4.93;;;1.40;;
14282;SDS011;7225;59.282;18.344;2023-04-03T07:06:12;4.90;;;1.07;;
14282;SDS011;7225;59.282;18.344;2023-04-03T07:08:40;4.47;;;1.30;;
14282;SDS011;7225;59.282;18.344;2023-04-03T07:11:09;1.77;;;1.03;;
14282;SDS011;7225;59.282;18.344;2023-04-03T07:13:36;3.80;;;1.20;;
14282;SDS011;7225;59.282;18.344;2023-04-03T07:16:04;8.40;;;1.10;;
14282;SDS011;7225;59.282;18.344;2023-04-03T07:18:32;2.27;;;0.90;;
14282;SDS011;7225;59.282;18.344;2023-04-03T07:21:00;5.00;;;1.13;;
14282;SDS011;7225;59.282;18.344;2023-04-03T07:23:27;4.53;;;1.40;;
14282;SDS011;7225;59.282;18.344;2023-04-03T07:25:54;4.90;;;1.30;;
14282;SDS011;7225;59.282;18.344;2023-04-03T07:28:21;6.20;;;1.30;;
14282;SDS011;7225;59.282;18.344;2023-04-03T07:30:50;6.00;;;1.30;;
14282;SDS011;7225;59.282;18.344;2023-04-03T07:33:25;7.63;;;1.30;;
14282;SDS011;7225;59.282;18.344;2023-04-03T07:35:53;2.27;;;1.00;;
14282;SDS011;7225;59.282;18.344;2023-04-03T07:38:20;3.77;;;1.70;;
14282;SDS011;7225;59.282;18.344;2023-04-03T07:40:47;4.03;;;1.30;;
14282;SDS011;7225;59.282;18.344;2023-04-03T07:43:16;6.23;;;1.40;;
14282;SDS011;7225;59.282;18.344;2023-04-03T07:45:44;5.63;;;1.33;;
14282;SDS011;7225;59.282;18.344;2023-04-03T07:48:12;3.27;;;1.33;;
14282;SDS011;7225;59.282;18.344;2023-04-03T07:50:39;3.03;;;0.87;;
14282;SDS011;7225;59.282;18.344;2023-04-03T07:53:07;5.77;;;1.10;;
14282;SDS011;7225;59.282;18.344;2023-04-03T07:55:35;2.23;;;1.00;;
14282;SDS011;7225;59.282;18.344;2023-04-03T07:58:13;3.63;;;0.80;;
14282;SDS011;7225;59.282;18.344;2023-04-03T08:00:41;5.03;;;1.37;;
14282;SDS011;7225;59.282;18.344;2023-04-03T08:03:09;4.80;;;1.20;;
14282;SDS011;7225;59.282;18.344;2023-04-03T08:05:38;2.20;;;0.70;;
14282;SDS011;7225;59.282;18.344;2023-04-03T08:08:07;1.87;;;0.97;;
14282;SDS011;7225;59.282;18.344;2023-04-03T08:10:36;2.23;;;0.93;;
14282;SDS011;7225;59.282;18.344;2023-04-03T08:13:03;2.93;;;0.80;;
14282;SDS011;7225;59.282;18.344;2023-04-03T08:15:31;2.17;;;0.77;;
14282;SDS011;7225;59.282;18.344;2023-04-03T08:17:58;4.40;;;0.93;;
14282;SDS011;7225;59.282;18.344;2023-04-03T08:20:27;3.77;;;1.13;;
14282;SDS011;7225;59.282;18.344;2023-04-03T08:22:54;3.80;;;1.03;;
14282;SDS011;7225;59.282;18.344;2023-04-03T08:25:21;5.60;;;0.63;;
14282;SDS011;7225;59.282;18.344;2023-04-03T08:27:48;5.60;;;1.50;;
14282;SDS011;7225;59.282;18.344;2023-04-03T08:30:16;4.77;;;1.00;;
14282;SDS011;7225;59.282;18.344;2023-04-03T08:32:43;3.13;;;0.70;;
14282;SDS011;7225;59.282;18.344;2023-04-03T08:35:11;3.30;;;0.67;;
14282;SDS011;7225;59.282;18.344;2023-04-03T08:37:38;3.87;;;0.90;;
14282;SDS011;7225;59.282;18.344;2023-04-03T08:40:07;4.13;;;0.83;;
14282;SDS011;7225;59.282;18.344;2023-04-03T08:42:48;2.13;;;0.63;;
14282;SDS011;7225;59.282;18.344;2023-04-03T08:48:13;3.43;;;1.10;;
14282;SDS011;7225;59.282;18.344;2023-04-03T08:51:04;2.13;;;1.00;;
14282;SDS011;7225;59.282;18.344;2023-04-03T08:53:43;3.67;;;0.80;;
14282;SDS011;7225;59.282;18.344;2023-04-03T08:56:26;2.90;;;0.90;;
14282;SDS011;7225;59.282;18.344;2023-04-03T08:58:57;3.60;;;0.83;;
14282;SDS011;7225;59.282;18.344;2023-04-03T09:01:30;1.70;;;0.60;;
14282;SDS011;7225;59.282;18.344;2023-04-03T09:04:02;3.40;;;1.13;;
14282;SDS011;7225;59.282;18.344;2023-04-03T09:06:36;2.77;;;0.70;;
14282;SDS011;7225;59.282;18.344;2023-04-03T09:09:13;1.40;;;0.77;;
14282;SDS011;7225;59.282;18.344;2023-04-03T09:12:33;2.93;;;0.90;;
14282;SDS011;7225;59.282;18.344;2023-04-03T09:18:23;2.73;;;0.70;;
14282;SDS011;7225;59.282;18.344;2023-04-03T09:26:21;5.37;;;0.90;;
14282;SDS011;7225;59.282;18.344;2023-04-03T09:28:53;3.30;;;1.00;;
14282;SDS011;7225;59.282;18.344;2023-04-03T09:31:24;2.27;;;1.10;;
14282;SDS011;7225;59.282;18.344;2023-04-03T09:34:38;2.50;;;0.93;;
14282;SDS011;7225;59.282;18.344;2023-04-03T09:37:01;3.40;;;0.83;;
14282;SDS011;7225;59.282;18.344;2023-04-03T09:39:47;1.90;;;0.60;;
14282;SDS011;7225;59.282;18.344;2023-04-03T09:42:23;2.90;;;0.83;;
14282;SDS011;7225;59.282;18.344;2023-04-03T09:45:01;4.37;;;0.97;;
14282;SDS011;7225;59.282;18.344;2023-04-03T09:47:31;1.70;;;0.80;;
14282;SDS011;7225;59.282;18.344;2023-04-03T09:52:46;2.53;;;0.90;;
14282;SDS011;7225;59.282;18.344;2023-04-03T09:55:25;1.67;;;0.53;;
14282;SDS011;7225;59.282;18.344;2023-04-03T09:57:59;2.77;;;0.70;;
14282;SDS011;7225;59.282;18.344;2023-04-03T10:00:29;1.83;;;0.57;;
14282;SDS011;7225;59.282;18.344;2023-04-03T10:03:03;6.53;;;0.80;;
14282;SDS011;7225;59.282;18.344;2023-04-03T10:05:36;1.10;;;0.60;;
14282;SDS011;7225;59.282;18.344;2023-04-03T10:10:44;1.40;;;0.60;;
14282;SDS011;7225;59.282;18.344;2023-04-03T10:21:28;1.40;;;0.70;;
14282;SDS011;7225;59.282;18.344;2023-04-03T10:24:07;1.10;;;0.50;;
14282;SDS011;7225;59.282;18.344;2023-04-03T10:26:44;2.70;;;1.00;;
14282;SDS011;7225;59.282;18.344;2023-04-03T10:34:44;2.30;;;0.60;;
14282;SDS011;7225;59.282;18.344;2023-04-03T10:37:30;1.70;;;0.70;;
14282;SDS011;7225;59.282;18.344;2023-04-03T10:43:09;1.73;;;0.60;;
14282;SDS011;7225;59.282;18.344;2023-04-03T10:51:13;1.27;;;0.60;;
14282;SDS011;7225;59.282;18.344;2023-04-03T10:56:56;0.97;;;0.53;;
14282;SDS011;7225;59.282;18.344;2023-04-03T10:59:48;4.40;;;0.80;;
14282;SDS011;7225;59.282;18.344;2023-04-03T11:05:37;2.73;;;0.80;;
14282;SDS011;7225;59.282;18.344;2023-04-03T11:08:12;3.03;;;0.77;;
14282;SDS011;7225;59.282;18.344;2023-04-03T11:10:48;0.97;;;0.53;;
14282;SDS011;7225;59.282;18.344;2023-04-03T11:13:18;2.00;;;0.53;;
14282;SDS011;7225;59.282;18.344;2023-04-03T11:15:57;1.23;;;0.53;;
14282;SDS011;7225;59.282;18.344;2023-04-03T11:18:45;1.73;;;0.70;;
14282;SDS011;7225;59.282;18.344;2023-04-03T11:21:57;1.57;;;0.57;;
14282;SDS011;7225;59.282;18.344;2023-04-03T11:24:51;0.50;;;0.40;;
14282;SDS011;7225;59.282;18.344;2023-04-03T11:27:24;2.47;;;0.60;;
14282;SDS011;7225;59.282;18.344;2023-04-03T11:29:53;1.93;;;0.50;;
14282;SDS011;7225;59.282;18.344;2023-04-03T11:32:28;0.83;;;0.40;;
14282;SDS011;7225;59.282;18.344;2023-04-03T11:35:11;1.80;;;0.60;;
14282;SDS011;7225;59.282;18.344;2023-04-03T11:37:41;4.13;;;0.63;;
14282;SDS011;7225;59.282;18.344;2023-04-03T11:42:42;1.60;;;0.60;;
14282;SDS011;7225;59.282;18.344;2023-04-03T11:48:41;1.87;;;0.50;;
14282;SDS011;7225;59.282;18.344;2023-04-03T11:50:54;1.00;;;0.47;;
14282;SDS011;7225;59.282;18.344;2023-04-03T11:55:56;1.23;;;0.50;;
14282;SDS011;7225;59.282;18.344;2023-04-03T11:58:27;2.00;;;0.57;;
14282;SDS011;7225;59.282;18.344;2023-04-03T12:01:00;0.67;;;0.43;;
14282;SDS011;7225;59.282;18.344;2023-04-03T12:13:36;3.20;;;0.90;;
14282;SDS011;7225;59.282;18.344;2023-04-03T12:16:20;2.50;;;0.80;;
14282;SDS011;7225;59.282;18.344;2023-04-03T12:27:43;2.30;;;0.70;;
14282;SDS011;7225;59.282;18.344;2023-04-03T12:29:52;1.23;;;0.50;;
14282;SDS011;7225;59.282;18.344;2023-04-03T12:35:15;1.47;;;0.60;;
14282;SDS011;7225;59.282;18.344;2023-04-03T12:46:50;0.90;;;0.43;;
14282;SDS011;7225;59.282;18.344;2023-04-03T12:55:15;2.33;;;0.60;;
14282;SDS011;7225;59.282;18.344;2023-04-03T12:57:44;1.43;;;1.03;;
14282;SDS011;7225;59.282;18.344;2023-04-03T13:00:33;0.93;;;0.60;;
14282;SDS011;7225;59.282;18.344;2023-04-03T13:03:02;1.73;;;0.43;;
14282;SDS011;7225;59.282;18.344;2023-04-03T13:05:32;3.10;;;0.80;;
14282;SDS011;7225;59.282;18.344;2023-04-03T13:08:04;1.33;;;0.50;;
14282;SDS011;7225;59.282;18.344;2023-04-03T13:10:43;1.30;;;0.70;;
14282;SDS011;7225;59.282;18.344;2023-04-03T13:13:24;1.60;;;0.50;;
14282;SDS011;7225;59.282;18.344;2023-04-03T13:15:52;0.77;;;0.40;;
14282;SDS011;7225;59.282;18.344;2023-04-03T13:18:38;0.97;;;0.33;;
14282;SDS011;7225;59.282;18.344;2023-04-03T13:23:48;1.37;;;0.43;;
14282;SDS011;7225;59.282;18.344;2023-04-03T13:26:30;0.50;;;0.33;;
14282;SDS011;7225;59.282;18.344;2023-04-03T13:29:01;2.57;;;0.60;;
14282;SDS011;7225;59.282;18.344;2023-04-03T13:31:32;2.43;;;0.43;;
14282;SDS011;7225;59.282;18.344;2023-04-03T13:34:12;0.33;;;0.30;;
14282;SDS011;7225;59.282;18.344;2023-04-03T13:36:55;0.83;;;0.40;;
14282;SDS011;7225;59.282;18.344;2023-04-03T13:39:25;0.60;;;0.40;;
14282;SDS011;7225;59.282;18.344;2023-04-03T13:42:24;3.07;;;0.70;;
14282;SDS011;7225;59.282;18.344;2023-04-03T13:50:54;1.33;;;0.60;;
14282;SDS011;7225;59.282;18.344;2023-04-03T13:53:33;2.23;;;0.57;;
14282;SDS011;7225;59.282;18.344;2023-04-03T13:56:09;0.97;;;0.40;;
14282;SDS011;7225;59.282;18.344;2023-04-03T13:58:54;2.13;;;0.40;;
14282;SDS011;7225;59.282;18.344;2023-04-03T14:01:35;1.23;;;0.40;;
14282;SDS011;7225;59.282;18.344;2023-04-03T14:04:30;1.13;;;0.63;;
14282;SDS011;7225;59.282;18.344;2023-04-03T14:06:57;2.63;;;0.40;;
14282;SDS011;7225;59.282;18.344;2023-04-03T14:09:25;1.87;;;0.60;;
14282;SDS011;7225;59.282;18.344;2023-04-03T14:11:54;1.90;;;0.40;;
14282;SDS011;7225;59.282;18.344;2023-04-03T14:14:29;0.50;;;0.30;;
14282;SDS011;7225;59.282;18.344;2023-04-03T14:17:03;1.90;;;0.40;;
14282;SDS011;7225;59.282;18.344;2023-04-03T14:19:51;0.57;;;0.23;;
14282;SDS011;7225;59.282;18.344;2023-04-03T14:22:21;1.20;;;0.47;;
14282;SDS011;7225;59.282;18.344;2023-04-03T14:24:51;1.83;;;0.70;;
14282;SDS011;7225;59.282;18.344;2023-04-03T14:29:48;4.87;;;0.43;;
14282;SDS011;7225;59.282;18.344;2023-04-03T14:32:20;0.73;;;0.50;;
14282;SDS011;7225;59.282;18.344;2023-04-03T14:34:48;3.57;;;0.60;;
14282;SDS011;7225;59.282;18.344;2023-04-03T14:37:22;1.07;;;0.43;;
14282;SDS011;7225;59.282;18.344;2023-04-03T14:39:52;1.20;;;0.40;;
14282;SDS011;7225;59.282;18.344;2023-04-03T14:42:23;1.23;;;0.73;;
14282;SDS011;7225;59.282;18.344;2023-04-03T14:44:52;2.80;;;0.70;;
14282;SDS011;7225;59.282;18.344;2023-04-03T14:47:20;1.40;;;0.60;;
14282;SDS011;7225;59.282;18.344;2023-04-03T14:49:57;0.70;;;0.30;;
14282;SDS011;7225;59.282;18.344;2023-04-03T14:52:32;1.17;;;0.60;;
14282;SDS011;7225;59.282;18.344;2023-04-03T14:55:03;0.20;;;0.20;;
14282;SDS011;7225;59.282;18.344;2023-04-03T14:57:32;1.00;;;0.40;;
14282;SDS011;7225;59.282;18.344;2023-04-03T15:00:00;1.13;;;0.40;;
14282;SDS011;7225;59.282;18.344;2023-04-03T15:02:36;1.70;;;0.63;;
14282;SDS011;7225;59.282;18.344;2023-04-03T15:05:06;2.50;;;0.40;;
14282;SDS011;7225;59.282;18.344;2023-04-03T15:07:39;3.03;;;0.40;;
14282;SDS011;7225;59.282;18.344;2023-04-03T15:12:50;0.67;;;0.33;;
14282;SDS011;7225;59.282;18.344;2023-04-03T15:15:19;1.97;;;0.63;;
14282;SDS011;7225;59.282;18.344;2023-04-03T15:17:55;2.40;;;0.40;;
14282;SDS011;7225;59.282;18.344;2023-04-03T15:20:26;1.43;;;0.40;;
14282;SDS011;7225;59.282;18.344;2023-04-03T15:22:57;1.47;;;0.50;;
14282;SDS011;7225;59.282;18.344;2023-04-03T15:25:27;0.97;;;0.50;;
14282;SDS011;7225;59.282;18.344;2023-04-03T15:27:54;1.80;;;0.50;;
14282;SDS011;7225;59.282;18.344;2023-04-03T15:30:22;0.90;;;0.30;;
14282;SDS011;7225;59.282;18.344;2023-04-03T15:32:49;1.53;;;0.60;;
14282;SDS011;7225;59.282;18.344;2023-04-03T15:35:16;0.53;;;0.40;;
14282;SDS011;7225;59.282;18.344;2023-04-03T15:37:44;0.77;;;0.30;;
14282;SDS011;7225;59.282;18.344;2023-04-03T15:40:11;1.17;;;0.40;;
14282;SDS011;7225;59.282;18.344;2023-04-03T15:42:38;0.40;;;0.30;;
14282;SDS011;7225;59.282;18.344;2023-04-03T15:45:06;0.60;;;0.37;;
14282;SDS011;7225;59.282;18.344;2023-04-03T15:47:34;0.57;;;0.30;;
14282;SDS011;7225;59.282;18.344;2023-04-03T15:50:01;3.20;;;0.87;;
14282;SDS011;7225;59.282;18.344;2023-04-03T15:52:28;1.20;;;0.70;;
14282;SDS011;7225;59.282;18.344;2023-04-03T15:54:55;0.77;;;0.30;;
14282;SDS011;7225;59.282;18.344;2023-04-03T15:57:22;2.23;;;0.70;;
14282;SDS011;7225;59.282;18.344;2023-04-03T15:59:52;1.83;;;0.67;;
14282;SDS011;7225;59.282;18.344;2023-04-03T16:02:19;1.60;;;0.50;;
14282;SDS011;7225;59.282;18.344;2023-04-03T16:04:47;1.57;;;0.50;;
14282;SDS011;7225;59.282;18.344;2023-04-03T16:07:15;1.47;;;0.43;;
14282;SDS011;7225;59.282;18.344;2023-04-03T16:09:42;4.00;;;0.50;;
14282;SDS011;7225;59.282;18.344;2023-04-03T16:12:09;1.63;;;0.50;;
14282;SDS011;7225;59.282;18.344;2023-04-03T16:14:36;0.43;;;0.33;;
14282;SDS011;7225;59.282;18.344;2023-04-03T16:17:03;1.37;;;0.40;;
14282;SDS011;7225;59.282;18.344;2023-04-03T16:19:30;1.57;;;0.40;;
14282;SDS011;7225;59.282;18.344;2023-04-03T16:21:57;0.50;;;0.40;;
14282;SDS011;7225;59.282;18.344;2023-04-03T16:24:24;0.60;;;0.23;;
14282;SDS011;7225;59.282;18.344;2023-04-03T16:26:51;3.30;;;0.60;;
14282;SDS011;7225;59.282;18.344;2023-04-03T16:29:19;1.73;;;0.43;;
14282;SDS011;7225;59.282;18.344;2023-04-03T16:31:46;1.20;;;0.53;;
14282;SDS011;7225;59.282;18.344;2023-04-03T16:34:14;0.80;;;0.37;;
14282;SDS011;7225;59.282;18.344;2023-04-03T16:36:42;1.53;;;0.40;;
14282;SDS011;7225;59.282;18.344;2023-04-03T16:39:09;1.23;;;0.40;;
14282;SDS011;7225;59.282;18.344;2023-04-03T16:41:36;1.63;;;0.60;;
14282;SDS011;7225;59.282;18.344;2023-04-03T16:44:03;0.77;;;0.30;;
14282;SDS011;7225;59.282;18.344;2023-04-03T16:46:30;0.70;;;0.40;;
14282;SDS011;7225;59.282;18.344;2023-04-03T16:48:57;0.63;;;0.30;;
14282;SDS011;7225;59.282;18.344;2023-04-03T16:51:24;1.07;;;0.40;;
14282;SDS011;7225;59.282;18.344;2023-04-03T16:53:51;2.43;;;0.43;;
14282;SDS011;7225;59.282;18.344;2023-04-03T16:56:18;0.60;;;0.33;;
14282;SDS011;7225;59.282;18.344;2023-04-03T16:58:46;1.87;;;0.37;;